Terminal Aerodrome Forecast
Issued by NWS Sterling, VA

Current Version | Previous Version | Text Only | Print | Product List | Glossary On
Versions: 1 2 3 4 5 6 7 8 9 10 11 12 13 14 15 16 17 18 19 20 21
132
FTUS41 KLWX 300530
TAFBWI
TAF
KBWI 300530Z 3006/3112 02004KT P6SM FEW250
     FM301500 06006KT P6SM FEW050
     FM310600 VRB03KT P6SM FEW200=

USA.gov is the U.S. government's official web portal to all federal, state and local government web resources and services.